createdAt,value
2022-09-14T00:01:25.416Z,99.75
2022-09-14T00:03:54.576Z,99.68
2022-09-14T00:06:21.341Z,99.59
2022-09-14T00:08:52.474Z,99.85
2022-09-14T00:11:19.655Z,99.60
2022-09-14T00:13:47.775Z,99.64
2022-09-14T00:16:17.593Z,99.67
2022-09-14T00:18:45.298Z,99.65
2022-09-14T00:21:12.920Z,99.56
2022-09-14T00:23:41.313Z,99.29
2022-09-14T00:26:17.104Z,99.39
2022-09-14T00:28:58.068Z,99.37
2022-09-14T00:31:25.950Z,99.02
2022-09-14T00:33:53.337Z,99.01
2022-09-14T00:36:23.227Z,99.08
2022-09-14T00:38:50.688Z,99.14
2022-09-14T00:41:23.440Z,99.30
2022-09-14T00:44:01.609Z,99.27
2022-09-14T00:46:31.324Z,99.53
2022-09-14T00:49:00.337Z,99.53
2022-09-14T00:51:28.928Z,99.75
2022-09-14T00:53:55.704Z,99.68
2022-09-14T00:56:22.269Z,99.72
2022-09-14T00:58:51.879Z,99.77
2022-09-14T01:01:19.674Z,99.82
2022-09-14T01:03:46.226Z,100.00
2022-09-14T01:06:38.523Z,99.62
2022-09-14T01:09:40.503Z,99.70
2022-09-14T01:12:33.128Z,99.46
2022-09-14T01:15:14.347Z,99.19
2022-09-14T01:17:52.983Z,99.34
2022-09-14T01:20:31.712Z,99.27
2022-09-14T01:23:10.619Z,98.88
2022-09-14T01:26:03.674Z,98.82
2022-09-14T01:29:06.457Z,98.80
2022-09-14T01:31:59.709Z,98.94
2022-09-14T01:34:57.321Z,98.90
2022-09-14T01:37:33.552Z,98.79
2022-09-14T01:40:22.161Z,98.77
2022-09-14T01:42:53.762Z,98.77
2022-09-14T01:45:24.365Z,98.99
2022-09-14T01:48:05.564Z,99.04
2022-09-14T01:50:43.590Z,99.37
2022-09-14T01:53:15.324Z,99.25
2022-09-14T01:55:44.491Z,99.08
2022-09-14T01:58:28.994Z,99.10
2022-09-14T02:00:57.217Z,99.12
2022-09-14T02:03:29.376Z,99.14
2022-09-14T02:06:12.945Z,99.17
2022-09-14T02:08:39.468Z,99.15
2022-09-14T02:11:06.531Z,98.83
2022-09-14T02:13:33.573Z,98.72
2022-09-14T02:16:00.196Z,98.66
2022-09-14T02:18:26.784Z,98.52
2022-09-14T02:20:58.895Z,98.93
2022-09-14T02:23:25.895Z,98.94
2022-09-14T02:25:52.784Z,98.86
2022-09-14T02:28:19.467Z,99.01
2022-09-14T02:31:11.189Z,99.04
2022-09-14T02:33:49.488Z,99.09
2022-09-14T02:36:28.122Z,99.08
2022-09-14T02:39:10.072Z,98.97
2022-09-14T02:41:49.864Z,98.87
2022-09-14T02:44:29.988Z,98.84
2022-09-14T02:47:47.554Z,99.03
2022-09-14T02:50:39.818Z,99.09
2022-09-14T02:53:28.507Z,99.04
2022-09-14T02:56:03.239Z,98.77
2022-09-14T02:58:38.293Z,98.80
2022-09-14T03:01:06.584Z,99.06
2022-09-14T03:03:35.653Z,99.14
2022-09-14T03:06:03.762Z,99.12
2022-09-14T03:08:30.377Z,99.30
2022-09-14T03:10:57.355Z,98.79
2022-09-14T03:13:24.545Z,99.35
2022-09-14T03:15:51.185Z,99.32
2022-09-14T03:18:18.043Z,99.24
2022-09-14T03:20:45.386Z,99.48
2022-09-14T03:23:12.710Z,99.32
2022-09-14T03:25:43.734Z,99.60
2022-09-14T03:28:11.671Z,99.67
2022-09-14T03:30:38.190Z,99.70
2022-09-14T03:33:04.674Z,99.70
2022-09-14T03:35:32.223Z,99.57
2022-09-14T03:37:59.759Z,99.34
2022-09-14T03:40:26.830Z,99.24
2022-09-14T03:42:53.449Z,99.18
2022-09-14T03:45:21.447Z,98.59
2022-09-14T03:47:48.688Z,98.92
2022-09-14T03:50:16.465Z,98.94
2022-09-14T03:52:43.016Z,98.63
2022-09-14T03:55:10.826Z,98.77
2022-09-14T03:57:37.697Z,98.64
2022-09-14T04:00:07.140Z,98.67
2022-09-14T04:02:33.723Z,98.44
2022-09-14T04:05:00.386Z,98.25
2022-09-14T04:07:27.041Z,98.07
2022-09-14T04:09:53.492Z,97.97
2022-09-14T04:12:19.911Z,97.80
2022-09-14T04:14:46.360Z,97.90
2022-09-14T04:17:12.979Z,97.91
2022-09-14T04:19:40.975Z,97.70
2022-09-14T04:22:07.939Z,97.89
2022-09-14T04:24:34.690Z,97.74
2022-09-14T04:27:01.325Z,97.74
2022-09-14T04:29:30.438Z,97.64
2022-09-14T04:31:57.448Z,97.59
2022-09-14T04:34:24.852Z,97.38
2022-09-14T04:36:51.343Z,97.44
2022-09-14T04:39:18.142Z,97.57
2022-09-14T04:41:44.627Z,97.36
2022-09-14T04:44:11.423Z,97.37
2022-09-14T04:46:43.598Z,97.43
2022-09-14T04:49:13.073Z,97.03
2022-09-14T04:51:39.722Z,97.18
2022-09-14T04:54:06.862Z,97.04
2022-09-14T04:56:35.979Z,97.02
2022-09-14T04:59:04.557Z,97.34
2022-09-14T05:01:35.525Z,96.82
2022-09-14T05:04:03.032Z,96.83
2022-09-14T05:06:32.272Z,96.70
2022-09-14T05:09:02.706Z,96.63
2022-09-14T05:11:32.194Z,96.28
2022-09-14T05:13:59.905Z,96.63
2022-09-14T05:16:29.175Z,96.77
2022-09-14T05:18:58.620Z,96.64
2022-09-14T05:21:25.221Z,96.99
2022-09-14T05:23:59.929Z,96.41
2022-09-14T05:26:28.432Z,96.63
2022-09-14T05:28:58.317Z,96.46
2022-09-14T05:31:26.481Z,96.57
2022-09-14T05:33:53.996Z,96.43
2022-09-14T05:36:20.959Z,96.15
2022-09-14T05:38:47.505Z,95.65
2022-09-14T05:41:15.679Z,95.25
2022-09-14T05:43:42.609Z,95.03
2022-09-14T05:46:14.724Z,94.64
2022-09-14T05:48:41.730Z,94.40
2022-09-14T05:51:16.349Z,94.89
2022-09-14T05:53:46.985Z,94.85
2022-09-14T05:56:13.892Z,95.14
2022-09-14T05:58:42.145Z,94.39
2022-09-14T06:01:22.406Z,94.29
2022-09-14T06:03:50.155Z,94.32
2022-09-14T06:06:18.559Z,93.89
2022-09-14T06:08:45.644Z,93.47
2022-09-14T06:11:15.555Z,93.22
2022-09-14T06:13:43.401Z,93.74
2022-09-14T06:16:13.142Z,93.67
2022-09-14T06:18:44.016Z,93.56
2022-09-14T06:21:15.278Z,93.90
2022-09-14T06:23:44.335Z,94.32
2022-09-14T06:26:11.312Z,94.97
2022-09-14T06:28:38.357Z,93.89
2022-09-14T06:31:07.544Z,92.78
2022-09-14T06:33:35.209Z,93.12
2022-09-14T06:36:04.730Z,93.65
2022-09-14T06:38:31.247Z,93.67
2022-09-14T06:40:59.997Z,93.01
2022-09-14T06:43:28.331Z,91.81
2022-09-14T06:46:05.854Z,91.82
2022-09-14T06:48:35.491Z,91.57
2022-09-14T06:51:19.353Z,91.44
2022-09-14T06:53:47.466Z,91.44
2022-09-14T06:56:14.441Z,90.52
2022-09-14T06:58:41.471Z,89.65
2022-09-14T07:01:11.644Z,88.88
2022-09-14T07:03:42.721Z,89.17
2022-09-14T07:06:13.019Z,88.22
2022-09-14T07:08:40.242Z,86.75
2022-09-14T07:11:08.791Z,86.26
2022-09-14T07:13:35.654Z,86.49
2022-09-14T07:16:03.528Z,86.35
2022-09-14T07:18:33.875Z,85.52
2022-09-14T07:21:05.540Z,84.02
2022-09-14T07:23:32.916Z,84.20
2022-09-14T07:26:05.220Z,84.64
2022-09-14T07:28:33.047Z,82.88
2022-09-14T07:31:00.263Z,83.34
2022-09-14T07:33:27.627Z,82.19
2022-09-14T07:35:54.209Z,82.00
2022-09-14T07:38:35.606Z,81.58
2022-09-14T07:41:07.632Z,80.97
2022-09-14T07:43:35.024Z,81.01
2022-09-14T07:46:03.727Z,82.27
2022-09-14T07:48:34.765Z,80.55
2022-09-14T07:51:03.165Z,79.72
2022-09-14T07:53:30.951Z,80.53
2022-09-14T07:56:01.654Z,79.42
2022-09-14T07:58:28.927Z,80.22
2022-09-14T08:01:04.559Z,80.27
2022-09-14T08:03:31.663Z,80.18
2022-09-14T08:06:04.230Z,80.54
2022-09-14T08:08:32.183Z,80.18
2022-09-14T08:11:08.462Z,79.82
2022-09-14T08:13:37.416Z,78.90
2022-09-14T08:16:05.032Z,77.52
2022-09-14T08:18:32.811Z,76.09
2022-09-14T08:21:10.834Z,76.57
2022-09-14T08:23:38.482Z,75.62
2022-09-14T08:26:10.376Z,77.17
2022-09-14T08:28:37.085Z,75.09
2022-09-14T08:31:05.998Z,76.34
2022-09-14T08:33:34.469Z,77.42
2022-09-14T08:36:01.042Z,77.17
2022-09-14T08:38:28.049Z,76.31
2022-09-14T08:40:54.838Z,76.82
2022-09-14T08:43:24.366Z,75.57
2022-09-14T08:45:55.183Z,75.28
2022-09-14T08:48:33.431Z,75.17
2022-09-14T08:51:00.245Z,77.32
2022-09-14T08:53:26.948Z,76.37
2022-09-14T08:56:12.088Z,78.14
2022-09-14T08:59:08.024Z,75.13
2022-09-14T09:01:43.268Z,75.54
2022-09-14T09:04:31.308Z,77.31
2022-09-14T09:07:39.031Z,72.57
2022-09-14T09:10:08.941Z,73.07
2022-09-14T09:12:43.989Z,75.40
2022-09-14T09:15:32.469Z,73.57
2022-09-14T09:18:05.011Z,71.36
2022-09-14T09:20:48.201Z,69.52
2022-09-14T09:23:18.140Z,70.39
2022-09-14T09:25:58.899Z,69.56
2022-09-14T09:28:28.503Z,66.17
2022-09-14T09:30:58.531Z,66.68
2022-09-14T09:33:27.260Z,65.78
2022-09-14T09:35:55.359Z,66.18
2022-09-14T09:38:25.919Z,66.26
2022-09-14T09:40:57.243Z,68.28
2022-09-14T09:43:45.366Z,66.75
2022-09-14T09:46:12.497Z,64.46
2022-09-14T09:48:40.790Z,65.19
2022-09-14T09:51:19.820Z,64.81
2022-09-14T09:53:52.337Z,63.69
2022-09-14T09:56:31.871Z,63.63
2022-09-14T09:58:58.477Z,65.39
2022-09-14T10:01:34.179Z,66.50
2022-09-14T10:04:00.639Z,63.88
2022-09-14T10:06:27.489Z,64.71
2022-09-14T10:08:57.459Z,65.62
2022-09-14T10:11:36.506Z,65.88
2022-09-14T10:14:04.963Z,66.13
2022-09-14T10:16:41.563Z,63.57
2022-09-14T10:19:18.516Z,64.14
2022-09-14T10:22:09.960Z,60.41
2022-09-14T10:24:37.996Z,61.45
2022-09-14T10:27:52.885Z,60.52
2022-09-14T10:30:22.180Z,60.52
2022-09-14T10:33:02.327Z,57.57
2022-09-14T10:35:36.031Z,58.24
2022-09-14T10:38:31.530Z,57.73
2022-09-14T10:41:40.511Z,58.40
2022-09-14T10:44:19.568Z,59.30
2022-09-14T10:47:09.906Z,58.15
2022-09-14T10:50:10.051Z,57.97
2022-09-14T10:52:58.560Z,57.98
2022-09-14T10:55:37.029Z,58.65
2022-09-14T10:58:37.717Z,58.44
2022-09-14T11:01:26.930Z,57.54
2022-09-14T11:04:08.051Z,58.18
2022-09-14T11:06:59.865Z,60.08
2022-09-14T11:09:33.815Z,57.94
2022-09-14T11:12:14.627Z,56.54
2022-09-14T11:14:53.915Z,56.18
2022-09-14T11:17:45.284Z,55.14
2022-09-14T11:20:32.115Z,57.87
2022-09-14T11:23:16.887Z,54.98
2022-09-14T11:25:49.348Z,54.77
2022-09-14T11:28:41.745Z,54.85
2022-09-14T11:31:29.117Z,56.67
2022-09-14T11:34:21.378Z,54.84
2022-09-14T11:36:55.846Z,55.96
2022-09-14T11:39:28.021Z,54.50
2022-09-14T11:42:04.068Z,55.10
2022-09-14T11:44:38.088Z,53.71
2022-09-14T11:47:13.516Z,52.70
2022-09-14T11:49:52.227Z,55.07
2022-09-14T11:52:25.299Z,55.72
2022-09-14T11:54:52.675Z,56.74
2022-09-14T11:57:20.707Z,51.44
2022-09-14T11:59:50.424Z,52.17
2022-09-14T12:02:23.253Z,51.48
2022-09-14T12:05:05.381Z,54.41
2022-09-14T12:07:46.939Z,53.26
2022-09-14T12:10:17.678Z,52.25
2022-09-14T12:12:46.554Z,53.34
2022-09-14T12:15:25.114Z,52.09
2022-09-14T12:17:53.815Z,52.83
2022-09-14T12:20:43.492Z,51.62
2022-09-14T12:23:13.053Z,52.01
2022-09-14T12:25:52.911Z,50.72
2022-09-14T12:28:37.812Z,51.02
2022-09-14T12:31:04.419Z,50.55
2022-09-14T12:33:33.971Z,53.51
2022-09-14T12:36:04.141Z,50.46
2022-09-14T12:38:30.584Z,51.03
2022-09-14T12:41:02.118Z,50.51
2022-09-14T12:43:37.732Z,53.14
2022-09-14T12:46:04.243Z,50.71
2022-09-14T12:48:49.187Z,50.67
2022-09-14T12:51:29.477Z,52.17
2022-09-14T12:54:01.763Z,51.60
2022-09-14T12:56:38.330Z,52.63
2022-09-14T12:59:18.069Z,52.57
2022-09-14T13:02:12.311Z,52.21
2022-09-14T13:04:40.798Z,51.48
2022-09-14T13:07:17.726Z,54.54
2022-09-14T13:09:50.494Z,56.45
2022-09-14T13:12:27.502Z,54.94
2022-09-14T13:14:58.272Z,53.34
2022-09-14T13:17:24.779Z,52.50
2022-09-14T13:20:00.216Z,52.01
2022-09-14T13:22:29.512Z,52.96
2022-09-14T13:24:58.818Z,53.63
2022-09-14T13:27:32.119Z,53.08
2022-09-14T13:30:03.128Z,53.31
2022-09-14T13:32:31.117Z,53.09
2022-09-14T13:34:58.007Z,53.12
2022-09-14T13:37:25.409Z,53.05
2022-09-14T13:39:54.714Z,55.60
2022-09-14T13:42:22.515Z,53.29
2022-09-14T13:44:50.349Z,55.54
2022-09-14T13:47:21.973Z,55.75
2022-09-14T13:49:50.504Z,57.56
2022-09-14T13:55:23.955Z,57.52
2022-09-14T13:58:15.132Z,59.39
2022-09-14T14:00:50.735Z,59.27
2022-09-14T14:03:27.124Z,55.34
2022-09-14T14:05:53.987Z,53.67
2022-09-14T14:08:37.340Z,53.74
2022-09-14T14:11:07.136Z,54.30
2022-09-14T14:13:37.061Z,53.51
2022-09-14T14:16:21.854Z,53.71
2022-09-14T14:18:58.047Z,53.31
2022-09-14T14:21:24.937Z,55.21
2022-09-14T14:24:12.203Z,56.43
2022-09-14T14:26:48.896Z,54.96
2022-09-14T14:29:16.467Z,54.99
2022-09-14T14:31:43.872Z,53.90
2022-09-14T14:34:21.405Z,54.09
2022-09-14T14:36:50.139Z,54.06
2022-09-14T14:39:22.542Z,55.99
2022-09-14T14:41:50.169Z,56.30
2022-09-14T14:44:20.783Z,56.71
2022-09-14T14:46:47.925Z,58.76
2022-09-14T14:49:17.180Z,60.92
2022-09-14T14:51:43.875Z,57.61
2022-09-14T14:54:10.432Z,57.29
2022-09-14T14:56:40.090Z,55.85
2022-09-14T14:59:31.022Z,54.90
2022-09-14T15:01:58.447Z,55.87
2022-09-14T15:04:25.407Z,55.58
2022-09-14T15:06:53.207Z,60.02
2022-09-14T15:09:28.075Z,58.48
2022-09-14T15:11:54.832Z,60.89
2022-09-14T15:14:26.951Z,59.96
2022-09-14T15:16:57.925Z,60.19
2022-09-14T15:19:25.428Z,62.31
2022-09-14T15:21:52.198Z,61.39
2022-09-14T15:24:18.765Z,63.58
2022-09-14T15:26:45.359Z,60.55
2022-09-14T15:29:18.154Z,62.47
2022-09-14T15:31:44.680Z,65.84
2022-09-14T15:34:11.342Z,64.21
2022-09-14T15:36:52.186Z,61.74
2022-09-14T15:39:39.754Z,64.13
2022-09-14T15:42:06.554Z,64.03
2022-09-14T15:44:33.197Z,65.96
2022-09-14T15:46:59.682Z,65.26
2022-09-14T15:49:26.573Z,66.55
2022-09-14T15:51:55.049Z,62.94
2022-09-14T15:54:30.978Z,63.67
2022-09-14T15:57:01.358Z,66.67
2022-09-14T15:59:28.880Z,67.57
2022-09-14T16:01:55.965Z,67.12
2022-09-14T16:04:22.716Z,68.44
2022-09-14T16:06:49.425Z,67.03
2022-09-14T16:09:17.467Z,67.71
2022-09-14T16:11:44.204Z,68.02
2022-09-14T16:14:11.421Z,66.75
2022-09-14T16:16:38.472Z,67.77
2022-09-14T16:19:10.883Z,68.32
2022-09-14T16:21:37.855Z,69.76
2022-09-14T16:24:06.771Z,70.13
2022-09-14T16:26:36.828Z,70.19
2022-09-14T16:29:04.665Z,69.47
2022-09-14T16:31:33.884Z,69.34
2022-09-14T16:34:03.182Z,69.17
2022-09-14T16:36:33.192Z,69.29
2022-09-14T16:39:02.230Z,69.93
2022-09-14T16:41:29.196Z,69.87
2022-09-14T16:43:57.140Z,69.54
2022-09-14T16:46:25.140Z,69.29
2022-09-14T16:48:52.007Z,69.67
2022-09-14T16:51:22.678Z,69.80
2022-09-14T16:53:50.618Z,70.24
2022-09-14T16:56:26.184Z,70.49
2022-09-14T16:58:54.555Z,70.78
2022-09-14T17:01:35.648Z,70.90
2022-09-14T17:04:09.782Z,71.41
2022-09-14T17:06:38.472Z,70.87
2022-09-14T17:09:09.009Z,71.05
2022-09-14T17:11:37.112Z,71.34
2022-09-14T17:14:04.565Z,71.06
2022-09-14T17:16:31.128Z,70.58
2022-09-14T17:19:02.687Z,71.36
2022-09-14T17:21:35.203Z,71.69
2022-09-14T17:24:04.437Z,71.99
2022-09-14T17:26:31.535Z,72.24
2022-09-14T17:28:59.303Z,72.59
2022-09-14T17:31:28.721Z,72.43
2022-09-14T17:33:57.739Z,72.84
2022-09-14T17:36:25.252Z,72.83
2022-09-14T17:38:54.263Z,72.87
2022-09-14T17:41:23.148Z,73.00
2022-09-14T17:43:57.439Z,73.19
2022-09-14T17:46:24.904Z,73.32
2022-09-14T17:48:52.074Z,73.66
2022-09-14T17:51:24.348Z,73.54
2022-09-14T17:53:53.331Z,72.84
2022-09-14T17:56:22.269Z,73.17
2022-09-14T17:58:56.930Z,73.86
2022-09-14T18:01:23.467Z,74.27
2022-09-14T18:03:58.205Z,74.27
2022-09-14T18:06:35.601Z,74.16
2022-09-14T18:09:06.005Z,74.35
2022-09-14T18:11:32.683Z,74.44
2022-09-14T18:13:59.958Z,74.22
2022-09-14T18:16:27.738Z,74.45
2022-09-14T18:18:54.770Z,73.79
2022-09-14T18:21:24.568Z,74.43
2022-09-14T18:24:07.925Z,75.02
2022-09-14T18:26:34.509Z,75.38
2022-09-14T18:29:01.209Z,75.76
2022-09-14T18:31:28.072Z,76.07
2022-09-14T18:33:59.111Z,76.25
2022-09-14T18:36:29.043Z,76.26
2022-09-14T18:38:58.772Z,76.52
2022-09-14T18:41:28.881Z,76.19
2022-09-14T18:43:55.491Z,76.27
2022-09-14T18:46:27.132Z,76.31
2022-09-14T18:48:56.805Z,76.44
2022-09-14T18:51:23.561Z,76.43
2022-09-14T18:53:56.421Z,76.77
2022-09-14T18:56:22.879Z,76.70
2022-09-14T18:58:49.367Z,77.12
2022-09-14T19:01:18.498Z,77.24
2022-09-14T19:03:45.080Z,77.44
2022-09-14T19:06:14.243Z,77.60
2022-09-14T19:08:41.717Z,77.07
2022-09-14T19:11:11.827Z,77.37
2022-09-14T19:13:39.125Z,77.60
2022-09-14T19:16:18.315Z,77.16
2022-09-14T19:18:49.314Z,76.74
2022-09-14T19:21:23.354Z,77.36
2022-09-14T19:24:06.323Z,77.19
2022-09-14T19:26:45.301Z,77.75
2022-09-14T19:29:16.158Z,78.29
2022-09-14T19:31:43.333Z,77.98
2022-09-14T19:34:10.441Z,77.66
2022-09-14T19:36:36.953Z,77.98
2022-09-14T19:39:06.601Z,78.23
2022-09-14T19:41:34.570Z,78.13
2022-09-14T19:44:02.364Z,77.99
2022-09-14T19:46:30.066Z,77.89
2022-09-14T19:48:57.011Z,77.44
2022-09-14T19:51:25.830Z,77.60
2022-09-14T19:53:55.038Z,77.88
2022-09-14T19:56:25.577Z,77.48
2022-09-14T19:58:55.448Z,78.32
2022-09-14T20:01:23.903Z,78.38
2022-09-14T20:03:50.973Z,77.62
2022-09-14T20:06:23.568Z,77.73
2022-09-14T20:08:57.555Z,78.01
2022-09-14T20:11:26.372Z,78.92
2022-09-14T20:13:57.943Z,79.46
2022-09-14T20:16:33.679Z,79.60
2022-09-14T20:19:04.844Z,80.32
2022-09-14T20:21:31.308Z,81.42
2022-09-14T20:24:16.691Z,81.25
2022-09-14T20:26:48.386Z,81.27
2022-09-14T20:29:16.435Z,81.50
2022-09-14T20:31:45.844Z,81.99
2022-09-14T20:34:13.388Z,82.69
2022-09-14T20:36:40.001Z,82.99
2022-09-14T20:39:06.868Z,83.49
2022-09-14T20:41:34.857Z,83.81
2022-09-14T20:44:01.991Z,84.05
2022-09-14T20:46:38.506Z,84.02
2022-09-14T20:49:07.691Z,84.29
2022-09-14T20:51:36.087Z,84.40
2022-09-14T20:54:02.858Z,84.02
2022-09-14T20:56:32.105Z,84.57
2022-09-14T20:59:00.842Z,84.98
2022-09-14T21:01:31.455Z,85.30
2022-09-14T21:04:10.039Z,85.27
2022-09-14T21:06:39.233Z,85.50
2022-09-14T21:09:07.289Z,86.05
2022-09-14T21:11:34.629Z,86.74
2022-09-14T21:14:01.743Z,86.92
2022-09-14T21:16:34.343Z,87.17
2022-09-14T21:19:03.711Z,87.22
2022-09-14T21:21:30.527Z,87.38
2022-09-14T21:23:59.083Z,87.58
2022-09-14T21:26:27.544Z,88.53
2022-09-14T21:28:56.973Z,88.63
2022-09-14T21:31:25.143Z,88.87
2022-09-14T21:33:54.588Z,88.78
2022-09-14T21:36:30.004Z,88.65
2022-09-14T21:38:59.803Z,88.39
2022-09-14T21:41:28.804Z,88.89
2022-09-14T21:43:56.522Z,89.53
2022-09-14T21:46:24.261Z,89.20
2022-09-14T21:48:52.113Z,89.62
2022-09-14T21:51:27.430Z,89.51
2022-09-14T21:54:00.547Z,89.58
2022-09-14T21:56:29.874Z,89.63
2022-09-14T21:58:58.516Z,89.91
2022-09-14T22:01:25.906Z,89.65
2022-09-14T22:03:53.860Z,90.01
2022-09-14T22:06:23.203Z,89.99
2022-09-14T22:08:50.686Z,90.09
2022-09-14T22:11:26.074Z,90.28
2022-09-14T22:14:02.405Z,90.31
2022-09-14T22:16:31.042Z,89.97
2022-09-14T22:19:00.228Z,90.14
2022-09-14T22:21:28.758Z,89.90
2022-09-14T22:23:57.620Z,90.12
2022-09-14T22:26:25.505Z,90.29
2022-09-14T22:28:53.662Z,90.62
2022-09-14T22:31:22.804Z,90.98
2022-09-14T22:33:51.013Z,90.72
2022-09-14T22:36:17.612Z,90.88
2022-09-14T22:38:44.280Z,91.17
2022-09-14T22:41:13.533Z,90.83
2022-09-14T22:43:41.028Z,90.83
2022-09-14T22:46:08.876Z,91.32
2022-09-14T22:48:36.699Z,90.70
2022-09-14T22:51:05.976Z,90.86
2022-09-14T22:53:33.628Z,90.88
2022-09-14T22:56:08.091Z,90.65
2022-09-14T22:58:34.694Z,90.74
2022-09-14T23:01:10.406Z,90.42
2022-09-14T23:03:37.280Z,90.64
2022-09-14T23:06:04.370Z,90.67
2022-09-14T23:08:31.516Z,90.84
2022-09-14T23:11:04.243Z,90.48
2022-09-14T23:13:31.062Z,90.73
2022-09-14T23:15:57.593Z,90.72
2022-09-14T23:18:24.050Z,90.99
2022-09-14T23:20:50.621Z,90.72
2022-09-14T23:23:17.097Z,90.85
2022-09-14T23:25:43.558Z,91.08
2022-09-14T23:28:11.933Z,91.51
2022-09-14T23:30:39.003Z,90.96
2022-09-14T23:33:05.683Z,91.75
2022-09-14T23:35:34.685Z,91.64
2022-09-14T23:38:04.023Z,91.64
2022-09-14T23:40:30.539Z,91.87
2022-09-14T23:42:57.123Z,91.79
2022-09-14T23:45:23.694Z,91.59
2022-09-14T23:47:50.164Z,91.76
2022-09-14T23:50:16.764Z,91.47
2022-09-14T23:52:43.385Z,91.97
2022-09-14T23:55:10.071Z,91.94
2022-09-14T23:57:36.765Z,91.87
